createdAt,value
2018-06-02T00:01:03.276Z,99865.94
2018-06-02T00:03:29.646Z,99862.13
2018-06-02T00:05:56.014Z,99860.19
2018-06-02T00:08:22.359Z,99861.09
2018-06-02T00:10:48.711Z,99866.14
2018-06-02T00:13:15.038Z,99869.20
2018-06-02T00:15:41.370Z,99866.96
2018-06-02T00:18:07.747Z,99864.44
2018-06-02T00:20:34.133Z,99856.58
2018-06-02T00:23:00.481Z,99863.27
2018-06-02T00:25:26.893Z,99862.86
2018-06-02T00:27:53.245Z,99863.45
2018-06-02T00:30:19.625Z,99863.47
2018-06-02T00:32:46.092Z,99863.26
2018-06-02T00:35:12.431Z,99864.41
2018-06-02T00:37:38.755Z,99861.77
2018-06-02T00:40:05.133Z,99861.53
2018-06-02T00:42:31.477Z,99863.73
2018-06-02T00:44:57.888Z,99860.42
2018-06-02T00:47:24.283Z,99858.52
2018-06-02T00:49:50.665Z,99851.77
2018-06-02T00:52:17.152Z,99863.20
2018-06-02T00:54:55.686Z,99859.56
2018-06-02T00:57:21.974Z,99859.84
2018-06-02T00:59:48.355Z,99860.06
2018-06-02T01:02:14.697Z,99859.62
2018-06-02T01:04:41.030Z,99851.61
2018-06-02T01:07:07.404Z,99848.50
2018-06-02T01:09:33.754Z,99844.36
2018-06-02T01:12:00.094Z,99844.37
2018-06-02T01:14:27.012Z,99849.27
2018-06-02T01:16:53.421Z,99849.74
2018-06-02T01:19:19.758Z,99851.81
2018-06-02T01:21:46.129Z,99860.84
2018-06-02T01:24:12.461Z,99862.55
2018-06-02T01:26:38.899Z,99864.75
2018-06-02T01:29:05.265Z,99865.75
2018-06-02T01:31:31.630Z,99864.45
2018-06-02T01:33:58.023Z,99870.50
2018-06-02T01:36:24.372Z,99869.09
2018-06-02T01:38:50.714Z,99857.84
2018-06-02T01:41:17.061Z,99860.84
2018-06-02T01:43:43.390Z,99865.13
2018-06-02T01:46:09.758Z,99864.67
2018-06-02T01:48:36.106Z,99863.36
2018-06-02T01:51:02.486Z,99860.41
2018-06-02T01:53:28.949Z,99859.20
2018-06-02T01:55:55.286Z,99861.22
2018-06-02T01:58:21.670Z,99866.77
2018-06-02T02:00:48.025Z,99867.83
2018-06-02T02:03:14.377Z,99873.45
2018-06-02T02:05:40.743Z,99876.92
2018-06-02T02:08:07.079Z,99870.45
2018-06-02T02:10:33.401Z,99877.69
2018-06-02T02:12:59.776Z,99875.49
2018-06-02T02:15:26.137Z,99876.00
2018-06-02T02:17:52.669Z,99876.97
2018-06-02T02:20:19.019Z,99878.76
2018-06-02T02:22:45.363Z,99880.70
2018-06-02T02:25:11.718Z,99881.44
2018-06-02T02:27:38.076Z,99887.89
2018-06-02T02:30:04.529Z,99891.43
2018-06-02T02:32:30.887Z,99896.95
2018-06-02T02:34:57.231Z,99893.43
2018-06-02T02:37:23.591Z,99892.95
2018-06-02T02:39:49.968Z,99888.06
2018-06-02T02:42:16.292Z,99887.02
2018-06-02T02:44:42.669Z,99880.69
2018-06-02T02:47:09.005Z,99874.38
2018-06-02T02:49:35.343Z,99877.09
2018-06-02T02:52:01.714Z,99879.33
2018-06-02T02:54:28.071Z,99887.39
2018-06-02T02:56:54.487Z,99892.59
2018-06-02T02:59:20.836Z,99896.72
2018-06-02T03:01:47.345Z,99897.39
2018-06-02T03:04:13.767Z,99899.30
2018-06-02T03:06:40.152Z,99900.34
2018-06-02T03:09:06.550Z,99902.34
2018-06-02T03:11:32.902Z,99911.27
2018-06-02T03:13:59.285Z,99908.65
2018-06-02T03:16:25.626Z,99906.53
2018-06-02T03:18:51.973Z,99907.97
2018-06-02T03:21:18.301Z,99908.98
2018-06-02T03:23:44.632Z,99911.64
2018-06-02T03:26:10.963Z,99904.91
2018-06-02T03:28:37.397Z,99913.38
2018-06-02T03:31:03.832Z,99916.45
2018-06-02T03:33:30.181Z,99920.68
2018-06-02T03:35:56.542Z,99918.00
2018-06-02T03:38:22.887Z,99915.17
2018-06-02T03:40:49.546Z,99915.38
2018-06-02T03:43:15.882Z,99917.16
2018-06-02T03:45:42.262Z,99917.94
2018-06-02T03:48:08.611Z,99914.17
2018-06-02T03:50:34.996Z,99915.52
2018-06-02T03:53:01.356Z,99909.33
2018-06-02T03:55:27.742Z,99914.34
2018-06-02T03:57:54.091Z,99918.05
2018-06-02T04:00:20.418Z,99909.38
2018-06-02T04:02:46.786Z,99919.91
2018-06-02T04:05:13.146Z,99917.61
2018-06-02T04:07:39.494Z,99919.70
2018-06-02T04:10:05.846Z,99917.42
2018-06-02T04:12:32.226Z,99925.40
2018-06-02T04:14:58.592Z,99924.70
2018-06-02T04:17:25.047Z,99924.73
2018-06-02T04:19:51.435Z,99918.95
2018-06-02T04:22:17.807Z,99926.14
2018-06-02T04:24:45.127Z,99926.67
2018-06-02T04:27:11.495Z,99934.56
2018-06-02T04:29:37.870Z,99930.38
2018-06-02T04:32:04.233Z,99924.50
2018-06-02T04:34:30.559Z,99923.23
2018-06-02T04:36:56.930Z,99931.79
2018-06-02T04:39:23.290Z,99934.23
2018-06-02T04:41:49.656Z,99935.25
2018-06-02T04:44:16.075Z,99943.52
2018-06-02T04:46:42.453Z,99946.10
2018-06-02T04:49:08.793Z,99942.32
2018-06-02T04:51:35.123Z,99935.98
2018-06-02T04:54:01.547Z,99931.42
2018-06-02T04:56:27.878Z,99939.33
2018-06-02T04:58:54.876Z,99942.70
2018-06-02T05:01:21.233Z,99946.09
2018-06-02T05:03:47.618Z,99944.91
2018-06-02T05:06:14.031Z,99938.94
2018-06-02T05:08:40.444Z,99937.09
2018-06-02T05:11:06.838Z,99934.64
2018-06-02T05:13:33.889Z,99935.88
2018-06-02T05:16:00.388Z,99937.14
2018-06-02T05:18:26.729Z,99941.16
2018-06-02T05:20:53.094Z,99939.13
2018-06-02T05:23:19.433Z,99940.80
2018-06-02T05:25:45.833Z,99940.80
2018-06-02T05:28:12.447Z,99937.79
2018-06-02T05:30:38.794Z,99947.47
2018-06-02T05:33:05.130Z,99945.34
2018-06-02T05:35:31.477Z,99937.44
2018-06-02T05:37:57.865Z,99942.81
2018-06-02T05:40:24.195Z,99941.20
2018-06-02T05:42:50.554Z,99942.85
2018-06-02T05:45:16.959Z,99938.47
2018-06-02T05:47:43.313Z,99944.47
2018-06-02T05:50:09.828Z,99938.31
2018-06-02T05:52:36.215Z,99948.78
2018-06-02T05:55:02.566Z,99940.39
2018-06-02T05:57:29.010Z,99938.47
2018-06-02T05:59:55.485Z,99940.31
2018-06-02T06:02:21.850Z,99947.11
2018-06-02T06:04:48.208Z,99950.00
2018-06-02T06:07:14.566Z,99946.01
2018-06-02T06:09:40.963Z,99939.98
2018-06-02T06:12:07.372Z,99952.63
2018-06-02T06:14:33.746Z,99952.52
2018-06-02T06:17:00.093Z,99946.13
2018-06-02T06:19:26.573Z,99946.98
2018-06-02T06:21:52.926Z,99944.98
2018-06-02T06:24:19.292Z,99933.04
2018-06-02T06:26:45.637Z,99940.83
2018-06-02T06:29:12.014Z,99934.19
2018-06-02T06:31:38.362Z,99943.48
2018-06-02T06:34:04.930Z,99942.66
2018-06-02T06:36:31.276Z,99947.54
2018-06-02T06:38:57.649Z,99942.00
2018-06-02T06:41:24.112Z,99941.22
2018-06-02T06:43:50.546Z,99938.94
2018-06-02T06:46:16.906Z,99936.65
2018-06-02T06:48:43.237Z,99938.59
2018-06-02T06:51:09.577Z,99944.49
2018-06-02T06:53:35.938Z,99942.94
2018-06-02T06:56:02.309Z,99946.04
2018-06-02T06:58:28.658Z,99939.32
2018-06-02T07:00:55.008Z,99943.39
2018-06-02T07:03:21.343Z,99937.55
2018-06-02T07:05:47.710Z,99935.01
2018-06-02T07:08:14.060Z,99933.28
2018-06-02T07:10:40.418Z,99930.60
2018-06-02T07:13:06.778Z,99937.39
2018-06-02T07:15:33.119Z,99937.39
2018-06-02T07:17:59.457Z,99940.41
2018-06-02T07:20:25.786Z,99946.59
2018-06-02T07:22:52.166Z,99943.61
2018-06-02T07:25:18.551Z,99945.19
2018-06-02T07:27:44.918Z,99941.58
2018-06-02T07:30:11.262Z,99944.95
2018-06-02T07:32:37.609Z,99942.73
2018-06-02T07:35:03.966Z,99943.06
2018-06-02T07:37:30.313Z,99940.25
2018-06-02T07:39:56.653Z,99935.70
2018-06-02T07:42:23.030Z,99941.58
2018-06-02T07:44:49.374Z,99933.13
2018-06-02T07:47:15.719Z,99939.45
2018-06-02T07:49:42.109Z,99949.10
2018-06-02T07:52:08.463Z,99944.95
2018-06-02T07:54:34.797Z,99940.98
2018-06-02T07:57:02.274Z,99944.92
2018-06-02T07:59:28.619Z,99945.95
2018-06-02T08:01:54.958Z,99948.11
2018-06-02T08:04:21.418Z,99949.28
2018-06-02T08:06:47.750Z,99945.80
2018-06-02T08:09:14.134Z,99938.37
2018-06-02T08:11:40.541Z,99937.16
2018-06-02T08:14:07.051Z,99943.86
2018-06-02T08:16:33.400Z,99944.39
2018-06-02T08:18:59.748Z,99940.23
2018-06-02T08:21:26.086Z,99934.08
2018-06-02T08:23:52.427Z,99933.13
2018-06-02T08:26:19.368Z,99927.05
2018-06-02T08:28:45.767Z,99931.30
2018-06-02T08:31:12.113Z,99920.86
2018-06-02T08:33:38.544Z,99928.80
2018-06-02T08:36:04.850Z,99924.95
2018-06-02T08:38:31.158Z,99930.08
2018-06-02T08:40:57.485Z,99917.30
2018-06-02T08:43:23.818Z,99923.20
2018-06-02T08:45:50.146Z,99917.06
2018-06-02T08:48:16.607Z,99915.36
2018-06-02T08:50:42.940Z,99920.02
2018-06-02T08:53:09.286Z,99924.80
2018-06-02T08:55:35.613Z,99919.23
2018-06-02T08:58:01.934Z,99916.08
2018-06-02T09:00:28.323Z,99907.55
2018-06-02T09:02:54.619Z,99919.34
2018-06-02T09:05:21.851Z,99917.78
2018-06-02T09:07:48.154Z,99915.09
2018-06-02T09:10:14.478Z,99913.24
2018-06-02T09:12:40.815Z,99907.09
2018-06-02T09:15:07.138Z,99905.11
2018-06-02T09:17:33.471Z,99898.33
2018-06-02T09:20:00.040Z,99912.30
2018-06-02T09:22:26.389Z,99910.33
2018-06-02T09:24:52.725Z,99910.95
2018-06-02T09:27:19.050Z,99914.14
2018-06-02T09:29:45.386Z,99901.95
2018-06-02T09:32:11.709Z,99902.17
2018-06-02T09:34:38.055Z,99904.98
2018-06-02T09:37:04.394Z,99901.86
2018-06-02T09:39:30.718Z,99901.95
2018-06-02T09:41:57.131Z,99908.63
2018-06-02T09:44:23.587Z,99907.53
2018-06-02T09:46:50.112Z,99901.95
2018-06-02T09:49:16.526Z,99904.31
2018-06-02T09:51:42.887Z,99892.77
2018-06-02T09:54:09.223Z,99895.89
2018-06-02T09:56:35.670Z,99893.30
2018-06-02T09:59:01.951Z,99901.89
2018-06-02T10:01:28.335Z,99892.19
2018-06-02T10:03:54.693Z,99889.45
2018-06-02T10:06:21.048Z,99885.91
2018-06-02T10:08:47.367Z,99877.22
2018-06-02T10:11:13.687Z,99878.42
2018-06-02T10:13:40.059Z,99867.79
2018-06-02T10:16:06.373Z,99872.02
2018-06-02T10:18:32.728Z,99866.53
2018-06-02T10:20:59.119Z,99870.73
2018-06-02T10:23:25.481Z,99863.25
2018-06-02T10:25:51.790Z,99863.45
2018-06-02T10:28:18.132Z,99861.80
2018-06-02T10:30:44.455Z,99867.04
2018-06-02T10:33:10.774Z,99863.20
2018-06-02T10:35:37.161Z,99861.81
2018-06-02T10:38:03.493Z,99843.64
2018-06-02T10:40:29.856Z,99847.45
2018-06-02T10:42:56.178Z,99852.55
2018-06-02T10:45:22.525Z,99844.59
2018-06-02T10:47:48.861Z,99845.09
2018-06-02T10:50:15.239Z,99842.19
2018-06-02T10:52:41.574Z,99839.18
2018-06-02T10:55:07.906Z,99833.77
2018-06-02T10:57:35.087Z,99831.38
2018-06-02T11:00:01.435Z,99825.67
2018-06-02T11:02:27.777Z,99827.97
2018-06-02T11:04:54.180Z,99811.63
2018-06-02T11:07:20.615Z,99812.39
2018-06-02T11:09:48.590Z,99809.77
2018-06-02T11:12:16.171Z,99806.20
2018-06-02T11:14:42.521Z,99794.20
2018-06-02T11:17:08.855Z,99795.20
2018-06-02T11:19:35.217Z,99798.91
2018-06-02T11:22:01.543Z,99789.15
2018-06-02T11:24:27.872Z,99785.09
2018-06-02T11:26:54.201Z,99794.02
2018-06-02T11:29:28.013Z,99798.20
2018-06-02T11:32:23.558Z,99787.86
2018-06-02T11:34:55.716Z,99787.27
2018-06-02T11:37:23.220Z,99789.53
2018-06-02T11:40:08.291Z,99780.80
2018-06-02T11:42:35.851Z,99780.66
2018-06-02T11:45:06.194Z,99782.77
2018-06-02T11:47:32.526Z,99783.34
2018-06-02T11:49:59.001Z,99781.75
2018-06-02T11:52:25.434Z,99782.00
2018-06-02T11:54:51.775Z,99781.33
2018-06-02T11:57:18.097Z,99769.69
2018-06-02T11:59:44.483Z,99769.19
2018-06-02T12:02:10.786Z,99767.13
2018-06-02T12:04:37.193Z,99759.70
2018-06-02T12:07:03.572Z,99753.58
2018-06-02T12:09:30.060Z,99747.50
2018-06-02T12:11:56.429Z,99757.30
2018-06-02T12:14:22.805Z,99747.48
2018-06-02T12:16:49.134Z,99742.64
2018-06-02T12:19:15.465Z,99742.48
2018-06-02T12:21:41.787Z,99750.75
2018-06-02T12:24:08.105Z,99743.11
2018-06-02T12:26:34.418Z,99739.59
2018-06-02T12:29:00.813Z,99741.78
2018-06-02T12:31:27.245Z,99740.86
2018-06-02T12:33:53.571Z,99728.83
2018-06-02T12:36:20.042Z,99720.41
2018-06-02T12:38:46.409Z,99724.26
2018-06-02T12:41:12.744Z,99719.27
2018-06-02T12:43:39.091Z,99711.53
2018-06-02T12:46:08.612Z,99716.20
2018-06-02T12:48:35.691Z,99715.70
2018-06-02T12:51:05.653Z,99708.58
2018-06-02T12:53:44.562Z,99705.18
2018-06-02T12:56:17.155Z,99702.41
2018-06-02T12:58:45.899Z,99695.19
2018-06-02T13:01:12.240Z,99690.66
2018-06-02T13:03:38.710Z,99691.83
2018-06-02T13:06:05.048Z,99679.19
2018-06-02T13:08:31.397Z,99675.33
2018-06-02T13:10:57.726Z,99677.22
2018-06-02T13:13:24.045Z,99671.30
2018-06-02T13:15:50.361Z,99671.16
2018-06-02T13:18:16.938Z,99676.73
2018-06-02T13:20:43.325Z,99676.03
2018-06-02T13:23:09.649Z,99674.52
2018-06-02T13:25:36.021Z,99673.76
2018-06-02T13:28:02.455Z,99672.70
2018-06-02T13:30:28.809Z,99674.94
2018-06-02T13:32:55.141Z,99663.77
2018-06-02T13:35:22.096Z,99667.41
2018-06-02T13:37:48.511Z,99663.22
2018-06-02T13:40:15.014Z,99660.77
2018-06-02T13:42:41.808Z,99659.92
2018-06-02T13:45:08.277Z,99657.42
2018-06-02T13:47:34.613Z,99650.02
2018-06-02T13:50:01.893Z,99655.47
2018-06-02T13:52:28.273Z,99649.20
2018-06-02T13:54:56.708Z,99647.90
2018-06-02T13:57:23.045Z,99652.42
2018-06-02T13:59:49.379Z,99654.20
2018-06-02T14:02:16.703Z,99649.33
2018-06-02T14:04:43.060Z,99649.81
2018-06-02T14:07:09.409Z,99648.41
2018-06-02T14:09:35.821Z,99644.13
2018-06-02T14:12:02.140Z,99642.73
2018-06-02T14:14:28.510Z,99645.90
2018-06-02T14:16:54.836Z,99635.23
2018-06-02T14:19:21.175Z,99635.82
2018-06-02T14:21:47.578Z,99630.33
2018-06-02T14:24:14.014Z,99626.89
2018-06-02T14:26:40.956Z,99622.47
2018-06-02T14:29:07.315Z,99623.86
2018-06-02T14:31:33.701Z,99621.79
2018-06-02T14:34:00.052Z,99620.69
2018-06-02T14:36:26.488Z,99616.46
2018-06-02T14:38:52.822Z,99620.98
2018-06-02T14:41:19.252Z,99619.33
2018-06-02T14:43:45.745Z,99622.09
2018-06-02T14:46:12.270Z,99613.84
2018-06-02T14:48:38.613Z,99615.36
2018-06-02T14:51:05.089Z,99615.45
2018-06-02T14:53:31.436Z,99620.02
2018-06-02T14:55:57.779Z,99625.61
2018-06-02T14:58:25.129Z,99619.30
2018-06-02T15:00:51.493Z,99632.63
2018-06-02T15:03:17.846Z,99633.39
2018-06-02T15:05:44.211Z,99624.55
2018-06-02T15:08:10.745Z,99624.67
2018-06-02T15:10:37.093Z,99624.75
2018-06-02T15:13:03.526Z,99617.61
2018-06-02T15:15:29.934Z,99621.59
2018-06-02T15:17:56.286Z,99620.22
2018-06-02T15:20:22.627Z,99617.38
2018-06-02T15:22:48.979Z,99614.36
2018-06-02T15:25:15.337Z,99609.23
2018-06-02T15:27:41.683Z,99609.45
2018-06-02T15:30:08.038Z,99603.52
2018-06-02T15:32:34.457Z,99603.56
2018-06-02T15:35:02.563Z,99600.25
2018-06-02T15:37:28.897Z,99598.66
2018-06-02T15:39:55.234Z,99591.16
2018-06-02T15:42:21.594Z,99593.98
2018-06-02T15:44:48.060Z,99594.04
2018-06-02T15:47:14.389Z,99591.61
2018-06-02T15:49:40.726Z,99595.87
2018-06-02T15:52:07.083Z,99593.92
2018-06-02T15:54:33.413Z,99587.02
2018-06-02T15:56:59.773Z,99588.75
2018-06-02T15:59:43.065Z,99583.88
2018-06-02T16:02:12.309Z,99578.47
2018-06-02T16:05:13.799Z,99579.90
2018-06-02T16:07:40.154Z,99580.46
2018-06-02T16:10:06.495Z,99582.74
2018-06-02T16:12:33.046Z,99576.75
2018-06-02T16:14:59.376Z,99575.52
2018-06-02T16:17:25.647Z,99576.92
2018-06-02T16:19:52.158Z,99578.66
2018-06-02T16:22:18.432Z,99575.39
2018-06-02T16:24:44.784Z,99580.16
2018-06-02T16:27:11.099Z,99576.11
2018-06-02T16:29:37.474Z,99579.73
2018-06-02T16:32:03.846Z,99579.23
2018-06-02T16:34:30.203Z,99579.31
2018-06-02T16:36:57.086Z,99572.89
2018-06-02T16:39:23.406Z,99574.38
2018-06-02T16:41:49.737Z,99565.46
2018-06-02T16:44:16.130Z,99564.68
2018-06-02T16:46:42.469Z,99567.03
2018-06-02T16:49:08.815Z,99576.03
2018-06-02T16:51:35.146Z,99568.05
2018-06-02T16:54:01.473Z,99571.27
2018-06-02T16:56:27.825Z,99572.41
2018-06-02T16:58:54.162Z,99567.73
2018-06-02T17:01:20.445Z,99582.39
2018-06-02T17:03:46.787Z,99577.42
2018-06-02T17:06:13.159Z,99585.65
2018-06-02T17:08:39.530Z,99586.50
2018-06-02T17:11:05.837Z,99585.39
2018-06-02T17:13:32.257Z,99594.44
2018-06-02T17:15:58.681Z,99592.48
2018-06-02T17:18:25.242Z,99596.10
2018-06-02T17:20:51.648Z,99587.00
2018-06-02T17:23:18.014Z,99586.63
2018-06-02T17:25:44.366Z,99583.90
2018-06-02T17:28:10.638Z,99586.22
2018-06-02T17:30:36.977Z,99590.31
2018-06-02T17:33:03.305Z,99595.23
2018-06-02T17:35:29.856Z,99598.11
2018-06-02T17:37:56.150Z,99607.52
2018-06-02T17:40:22.518Z,99604.98
2018-06-02T17:42:48.812Z,99606.11
2018-06-02T17:45:15.165Z,99608.02
2018-06-02T17:47:41.435Z,99606.59
2018-06-02T17:50:07.715Z,99604.16
2018-06-02T17:52:33.994Z,99604.75
2018-06-02T17:55:00.286Z,99606.62
2018-06-02T17:57:26.573Z,99610.64
2018-06-02T17:59:52.876Z,99611.51
2018-06-02T18:02:19.222Z,99615.27
2018-06-02T18:04:45.513Z,99616.09
2018-06-02T18:07:11.805Z,99617.50
2018-06-02T18:09:38.625Z,99612.23
2018-06-02T18:12:08.359Z,99611.02
2018-06-02T18:14:34.634Z,99619.28
2018-06-02T18:17:00.994Z,99619.08
2018-06-02T18:19:27.282Z,99619.33
2018-06-02T18:21:53.952Z,99621.45
2018-06-02T18:24:21.264Z,99633.64
2018-06-02T18:26:47.529Z,99630.09
2018-06-02T18:29:13.837Z,99638.03
2018-06-02T18:31:40.112Z,99638.02
2018-06-02T18:34:06.380Z,99649.66
2018-06-02T18:36:32.657Z,99652.53
2018-06-02T18:38:58.926Z,99656.30
2018-06-02T18:41:25.200Z,99658.62
2018-06-02T18:43:51.759Z,99665.80
2018-06-02T18:46:18.130Z,99665.23
2018-06-02T18:48:47.293Z,99673.23
2018-06-02T18:51:13.894Z,99678.08
2018-06-02T18:53:40.216Z,99683.70
2018-06-02T18:56:06.578Z,99683.63
2018-06-02T18:58:32.850Z,99682.05
2018-06-02T19:00:59.179Z,99677.86
2018-06-02T19:03:25.477Z,99681.27
2018-06-02T19:05:52.239Z,99685.50
2018-06-02T19:08:18.505Z,99689.28
2018-06-02T19:10:44.819Z,99687.20
2018-06-02T19:13:11.096Z,99680.64
2018-06-02T19:15:37.404Z,99690.80
2018-06-02T19:18:03.709Z,99685.35
2018-06-02T19:20:30.014Z,99694.36
2018-06-02T19:22:56.297Z,99696.09
2018-06-02T19:25:22.592Z,99694.58
2018-06-02T19:27:48.856Z,99698.35
2018-06-02T19:30:15.142Z,99703.27
2018-06-02T19:32:41.420Z,99696.70
2018-06-02T19:35:07.754Z,99702.16
2018-06-02T19:37:34.038Z,99706.71
2018-06-02T19:40:00.306Z,99701.84
2018-06-02T19:42:26.598Z,99708.45
2018-06-02T19:44:52.867Z,99704.10
2018-06-02T19:47:19.197Z,99700.20
2018-06-02T19:49:45.484Z,99705.14
2018-06-02T19:52:12.637Z,99699.86
2018-06-02T19:54:38.908Z,99702.29
2018-06-02T19:57:05.202Z,99705.22
2018-06-02T19:59:31.484Z,99707.47
2018-06-02T20:01:57.921Z,99709.75
2018-06-02T20:04:24.207Z,99708.12
2018-06-02T20:06:50.477Z,99703.73
2018-06-02T20:09:16.774Z,99703.12
2018-06-02T20:11:43.125Z,99697.06
2018-06-02T20:14:09.404Z,99698.39
2018-06-02T20:16:35.896Z,99691.30
2018-06-02T20:19:02.178Z,99699.69
2018-06-02T20:21:28.471Z,99698.77
2018-06-02T20:23:54.779Z,99697.83
2018-06-02T20:26:21.078Z,99702.82
2018-06-02T20:28:47.362Z,99704.41
2018-06-02T20:31:13.637Z,99700.61
2018-06-02T20:33:39.923Z,99701.13
2018-06-02T20:36:06.222Z,99699.61
2018-06-02T20:38:32.498Z,99696.98
2018-06-02T20:40:58.757Z,99694.04
2018-06-02T20:43:25.041Z,99704.02
2018-06-02T20:45:51.314Z,99700.29
2018-06-02T20:48:17.585Z,99700.58
2018-06-02T20:50:43.921Z,99704.09
2018-06-02T20:53:10.232Z,99708.89
2018-06-02T20:55:36.564Z,99706.50
2018-06-02T20:58:02.890Z,99702.72
2018-06-02T21:00:29.161Z,99708.36
2018-06-02T21:02:55.443Z,99707.98
2018-06-02T21:05:21.734Z,99700.50
2018-06-02T21:07:48.098Z,99701.70
2018-06-02T21:10:14.358Z,99708.77
2018-06-02T21:12:40.635Z,99708.01
2018-06-02T21:15:06.917Z,99709.94
2018-06-02T21:17:33.184Z,99710.67
2018-06-02T21:19:59.506Z,99717.08
2018-06-02T21:22:25.823Z,99717.59
2018-06-02T21:24:52.096Z,99713.94
2018-06-02T21:27:18.469Z,99717.98
2018-06-02T21:29:44.734Z,99714.07
2018-06-02T21:32:11.014Z,99707.74
2018-06-02T21:34:37.302Z,99715.09
2018-06-02T21:37:03.711Z,99719.20
2018-06-02T21:39:30.011Z,99719.46
2018-06-02T21:41:56.353Z,99718.39
2018-06-02T21:44:22.789Z,99717.84
2018-06-02T21:46:49.095Z,99707.39
2018-06-02T21:49:15.526Z,99714.70
2018-06-02T21:51:41.807Z,99711.72
2018-06-02T21:54:08.103Z,99713.16
2018-06-02T21:56:34.374Z,99711.87
2018-06-02T21:59:00.722Z,99715.58
2018-06-02T22:01:27.031Z,99715.72
2018-06-02T22:03:53.365Z,99710.20
2018-06-02T22:06:19.714Z,99718.13
2018-06-02T22:08:46.099Z,99720.55
2018-06-02T22:11:12.357Z,99711.27
2018-06-02T22:13:38.733Z,99710.89
2018-06-02T22:16:05.419Z,99713.82
2018-06-02T22:18:31.725Z,99713.20
2018-06-02T22:20:57.993Z,99712.66
2018-06-02T22:23:24.391Z,99715.72
2018-06-02T22:25:50.731Z,99715.05
2018-06-02T22:28:17.260Z,99713.85
2018-06-02T22:30:43.562Z,99707.71
2018-06-02T22:33:09.845Z,99713.22
2018-06-02T22:35:36.190Z,99707.54
2018-06-02T22:38:02.510Z,99709.16
2018-06-02T22:40:28.787Z,99710.92
2018-06-02T22:42:55.073Z,99705.03
2018-06-02T22:45:22.057Z,99708.70
2018-06-02T22:47:48.346Z,99698.55
2018-06-02T22:50:14.753Z,99698.19
2018-06-02T22:52:41.256Z,99696.81
2018-06-02T22:55:07.536Z,99705.05
2018-06-02T22:57:33.874Z,99712.94
2018-06-02T23:00:00.221Z,99712.94
2018-06-02T23:02:26.488Z,99711.80
2018-06-02T23:04:52.761Z,99713.35
2018-06-02T23:07:19.042Z,99702.92
2018-06-02T23:09:45.296Z,99698.20
2018-06-02T23:12:11.531Z,99699.96
2018-06-02T23:14:37.759Z,99701.98
2018-06-02T23:17:03.981Z,99702.00
2018-06-02T23:19:30.186Z,99692.09
2018-06-02T23:21:56.405Z,99694.44
2018-06-02T23:24:22.605Z,99696.47
2018-06-02T23:26:48.811Z,99695.63
2018-06-02T23:29:15.025Z,99699.70
2018-06-02T23:31:41.277Z,99693.28
2018-06-02T23:34:07.477Z,99690.61
2018-06-02T23:36:33.690Z,99704.02
2018-06-02T23:38:59.917Z,99701.58
2018-06-02T23:41:26.126Z,99706.56
2018-06-02T23:43:52.513Z,99708.91
2018-06-02T23:46:18.728Z,99705.62
2018-06-02T23:48:44.925Z,99702.85
2018-06-02T23:51:11.186Z,99698.95
2018-06-02T23:53:37.401Z,99693.95
2018-06-02T23:56:03.647Z,99687.00
2018-06-02T23:58:29.871Z,99688.03
